• Join FlightAware (Why Join?)
  • Login
  • US Flag 
04:46AM EDT


 

Airport Tracker/Info


-or-


 

Live Flight TrackerFlight Track Log ✈ EJA831 ✈ 13-Jun-2013 ✈ KMDW - KRST

Flight Track Log - Related Links

Times and Time Zones

All times are in EDT time to prevent confusion due to time zone crossing. See the EJA831 flight status page for this flight to view local times or setup timezone preferences in your user account.

Time Position Orientation Groundspeed Altitude Reporting Facility
EDT Latitude Longitude Course Direction KTS MPH feet Rate Location/Type
11:49AM 41.8167 -87.7500 270° West 200 230 2,500  Level Chicago TRACON
11:50AM 41.8167 -87.8333 270° West 265 305 3,100 2,100 Climbing Chicago TRACON
11:51AM 41.7833 -87.9167 242° Southwest 271 312 6,800 3,480 Climbing Chicago TRACON
11:51AM 41.7808 -87.9383 261° West 267 307 7,500 3,480 Climbing Chicago Center
11:52AM 41.8017 -88.0250 288° West 252 290 11,300 2,220 Climbing Chicago Center
11:53AM 41.8094 -88.1608 274° West 304 350 12,200 780 Climbing Chicago Center
11:54AM 41.8167 -88.2800 275° West 318 366 13,000 360 Climbing Chicago Center
11:55AM 41.8300 -88.3975 279° West 320 368 13,000 360 Level Chicago Center
11:56AM 41.8581 -88.5072 289° West 314 361 13,800 1,260 Climbing Chicago Center
11:57AM 41.8928 -88.6414 289° West 320 368 15,700 1,860 Climbing Chicago Center
11:58AM 41.9225 -88.7553 289° West 325 374 17,700 1,920 Climbing Chicago Center
11:59AM 41.9508 -88.8714 288° West 329 379 19,700 1,920 Climbing Chicago Center
12:00PM 41.9800 -88.9842 289° West 324 373 21,700 1,080 Climbing Chicago Center
12:01PM 42.0111 -89.1039 289° West 338 389 22,000 120 Climbing Chicago Center
12:02PM 42.0497 -89.2533 289° West 355 409 22,000  Level Chicago Center
12:03PM 42.0769 -89.3744 287° West 347 399 22,000  Level Chicago Center
12:04PM 42.1086 -89.4967 289° West 346 398 22,000  Level Chicago Center
12:05PM 42.1400 -89.6214 289° West 349 402 22,000  Level Chicago Center
12:06PM 42.1753 -89.7658 288° West 349 402 22,000  Level Chicago Center
12:07PM 42.2053 -89.8883 288° West 345 397 22,000  Level Chicago Center
12:08PM 42.2364 -90.0167 288° West 347 399 22,000  Level Chicago Center
12:09PM 42.2661 -90.1389 288° West 346 398 22,000  Level Chicago Center
12:11PM 42.2958 -90.2633 288° West 349 402 22,000  Level Chicago Center
12:12PM 42.3258 -90.3875 288° West 350 403 22,000  Level Chicago Center
12:13PM 42.3539 -90.5100 287° West 345 397 22,000  Level Chicago Center
12:14PM 42.3911 -90.6594 289° West 351 404 22,000  Level Chicago Center
12:15PM 42.4478 -90.7606 307° West 343 395 22,000  Level Chicago Center
12:16PM 42.5181 -90.8444 319° Northwest 344 396 22,000  Level Chicago Center
12:17PM 42.5911 -90.9264 320° Northwest 344 396 22,000  Level Chicago Center
12:18PM 42.6628 -91.0106 319° Northwest 344 396 22,000  Level Chicago Center
12:19PM 42.7497 -91.1114 320° Northwest 347 399 22,000  Level Chicago Center
12:20PM 42.8219 -91.1958 319° Northwest 348 400 22,000  Level Chicago Center
12:21PM 42.8928 -91.2794 319° Northwest 343 395 22,000  Level Chicago Center
12:22PM 42.9786 -91.3811 319° Northwest 346 398 22,000  Level Chicago Center
12:23PM 43.0506 -91.4656 319° Northwest 347 399 22,000  Level Chicago Center
12:24PM 43.1072 -91.5322 319° Northwest 345 397 22,000 -120 Level Minneapolis Center
12:25PM 43.1936 -91.6344 319° Northwest 346 398 21,800 -1,020 Descending Minneapolis Center
12:26PM 43.2636 -91.7186 319° Northwest 342 394 20,000 -1,800 Descending Minneapolis Center
12:27PM 43.3328 -91.8031 318° Northwest 338 389 18,200 -1,800 Descending Minneapolis Center
12:28PM 43.4017 -91.8858 319° Northwest 335 386 16,400 -1,680 Descending Minneapolis Center
12:29PM 43.4686 -91.9642 320° Northwest 324 373 14,800 -1,860 Descending Minneapolis Center
12:30PM 43.5456 -92.0586 318° Northwest 314 361 12,600 -2,100 Descending Minneapolis Center
12:31PM 43.5911 -92.1525 304° West 298 343 10,500 -2,160 Descending Minneapolis Center
12:32PM 43.6017 -92.2728 277° West 283 326 8,100 -2,040 Descending Minneapolis Center
12:33PM 43.6131 -92.3764 279° West 277 319 6,300 -1,500 Descending Minneapolis Center
12:34PM 43.6269 -92.4839 280° West 265 305 5,000 -660 Descending Minneapolis Center
12:35PM 43.6464 -92.5808 286° West 265 305 5,000  Level Minneapolis Center
12:36PM 43.7017 -92.6408 322° Northwest 260 299 5,000 -480 Level Minneapolis Center
12:37PM 43.7614 -92.5986 27° Northeast 248 285 4,100 -1,080 Descending Minneapolis Center
12:38PM 43.8225 -92.5569 26° Northeast 230 265 2,800 -1,080 Descending Minneapolis Center
12:39PM 43.8661 -92.5267 27° Northeast 176 203 1,900 -780 Descending Minneapolis Center
12:40PM 43.8972 -92.5058 26° Northeast 123 142 1,300 -360 Descending Minneapolis Center
12:41PM 43.9242 -92.4872 26° Northeast 117 135 1,200 -120 Descending Minneapolis Center
12:43PM 43.9083 -92.5000 154° Southeast  Level Estimated